createdAt,value
2023-01-01T00:01:22.215Z,100158.84
2023-01-01T00:03:52.847Z,100170.47
2023-01-01T00:06:19.338Z,100160.53
2023-01-01T00:08:45.965Z,100181.00
2023-01-01T00:11:12.347Z,100168.94
2023-01-01T00:13:40.184Z,100171.00
2023-01-01T00:16:13.425Z,100175.19
2023-01-01T00:18:40.587Z,100165.72
2023-01-01T00:21:10.275Z,100182.41
2023-01-01T00:23:36.655Z,100182.59
2023-01-01T00:26:10.269Z,100188.53
2023-01-01T00:28:36.681Z,100195.22
2023-01-01T00:31:21.847Z,100184.06
2023-01-01T00:33:51.832Z,100195.16
2023-01-01T00:36:18.832Z,100187.97
2023-01-01T00:38:46.073Z,100181.84
2023-01-01T00:41:13.962Z,100175.03
2023-01-01T00:43:40.888Z,100177.75
2023-01-01T00:46:07.973Z,100176.38
2023-01-01T00:48:34.605Z,100190.19
2023-01-01T00:51:01.012Z,100174.44
2023-01-01T00:53:27.395Z,100178.53
2023-01-01T00:55:56.202Z,100180.84
2023-01-01T00:58:24.465Z,100182.19
2023-01-01T01:00:51.813Z,100187.41
2023-01-01T01:03:30.893Z,100194.53
2023-01-01T01:06:10.647Z,100201.81
2023-01-01T01:08:39.607Z,100190.22
2023-01-01T01:11:12.202Z,100195.75
2023-01-01T01:13:39.350Z,100192.16
2023-01-01T01:16:17.803Z,100188.16
2023-01-01T01:18:44.738Z,100201.28
2023-01-01T01:21:14.381Z,100211.72
2023-01-01T01:23:40.746Z,100197.97
2023-01-01T01:26:28.389Z,100201.84
2023-01-01T01:28:55.207Z,100203.13
2023-01-01T01:31:23.049Z,100209.97
2023-01-01T01:33:50.050Z,100231.22
2023-01-01T01:36:17.428Z,100208.53
2023-01-01T01:38:44.150Z,100221.41
2023-01-01T01:41:26.121Z,100223.94
2023-01-01T01:43:54.899Z,100231.41
2023-01-01T01:46:33.574Z,100222.13
2023-01-01T01:49:06.283Z,100230.09
2023-01-01T01:51:37.330Z,100228.03
2023-01-01T01:54:08.913Z,100233.53
2023-01-01T01:56:42.502Z,100238.69
2023-01-01T01:59:09.194Z,100235.88
2023-01-01T02:01:35.825Z,100246.31
2023-01-01T02:04:02.927Z,100229.66
2023-01-01T02:06:30.844Z,100235.88
2023-01-01T02:08:59.373Z,100241.50
2023-01-01T02:11:25.821Z,100238.06
2023-01-01T02:13:53.455Z,100243.16
2023-01-01T02:16:22.812Z,100247.19
2023-01-01T02:18:57.010Z,100244.13
2023-01-01T02:21:27.269Z,100250.47
2023-01-01T02:24:12.508Z,100253.91
2023-01-01T02:26:49.725Z,100252.44
2023-01-01T02:29:28.123Z,100243.88
2023-01-01T02:32:13.416Z,100259.00
2023-01-01T02:35:34.629Z,100243.22
2023-01-01T02:38:07.815Z,100234.94
2023-01-01T02:40:36.251Z,100247.16
2023-01-01T02:43:03.417Z,100256.28
2023-01-01T02:45:29.856Z,100252.91
2023-01-01T02:47:56.232Z,100251.94
2023-01-01T02:50:25.826Z,100241.13
2023-01-01T02:52:59.992Z,100240.84
2023-01-01T02:55:37.199Z,100244.06
2023-01-01T02:58:38.308Z,100250.16
2023-01-01T03:01:45.548Z,100252.16
2023-01-01T03:04:26.222Z,100257.78
2023-01-01T03:06:59.117Z,100251.97
2023-01-01T03:09:40.849Z,100249.63
2023-01-01T03:12:13.459Z,100246.50
2023-01-01T03:14:44.314Z,100258.38
2023-01-01T03:17:20.647Z,100253.22
2023-01-01T03:19:48.935Z,100256.50
2023-01-01T03:22:17.326Z,100255.44
2023-01-01T03:24:52.784Z,100266.63
2023-01-01T03:27:22.308Z,100280.19
2023-01-01T03:29:51.116Z,100270.06
2023-01-01T03:32:21.304Z,100274.97
2023-01-01T03:34:51.925Z,100266.03
2023-01-01T03:37:23.746Z,100270.56
2023-01-01T03:39:56.172Z,100261.13
2023-01-01T03:42:28.409Z,100262.31
2023-01-01T03:45:05.018Z,100251.38
2023-01-01T03:47:31.619Z,100256.50
2023-01-01T03:49:58.400Z,100260.75
2023-01-01T03:52:32.269Z,100261.34
2023-01-01T03:55:20.636Z,100265.22
2023-01-01T03:58:03.372Z,100263.34
2023-01-01T04:00:35.677Z,100259.63
2023-01-01T04:03:06.321Z,100273.94
2023-01-01T04:05:38.045Z,100285.59
2023-01-01T04:08:04.886Z,100282.31
2023-01-01T04:10:33.334Z,100293.72
2023-01-01T04:13:03.294Z,100285.97
2023-01-01T04:15:31.053Z,100281.97
2023-01-01T04:17:57.447Z,100305.44
2023-01-01T04:20:24.081Z,100307.22
2023-01-01T04:22:50.663Z,100297.91
2023-01-01T04:25:17.536Z,100315.31
2023-01-01T04:27:44.334Z,100318.97
2023-01-01T04:30:13.357Z,100319.94
2023-01-01T04:32:40.111Z,100320.91
2023-01-01T04:35:07.889Z,100329.56
2023-01-01T04:37:37.899Z,100319.41
2023-01-01T04:40:05.421Z,100301.03
2023-01-01T04:42:31.798Z,100326.63
2023-01-01T04:44:58.187Z,100311.44
2023-01-01T04:47:26.744Z,100315.47
2023-01-01T04:49:53.951Z,100303.50
2023-01-01T04:52:20.433Z,100307.72
2023-01-01T04:54:46.820Z,100311.59
2023-01-01T04:57:13.707Z,100329.91
2023-01-01T04:59:40.806Z,100323.28
2023-01-01T05:02:07.295Z,100326.94
2023-01-01T05:04:33.834Z,100325.16
2023-01-01T05:07:00.230Z,100337.22
2023-01-01T05:09:26.619Z,100341.91
2023-01-01T05:11:54.482Z,100342.63
2023-01-01T05:14:20.851Z,100342.84
2023-01-01T05:16:47.274Z,100358.22
2023-01-01T05:19:14.009Z,100346.34
2023-01-01T05:21:40.884Z,100346.25
2023-01-01T05:24:09.324Z,100354.75
2023-01-01T05:26:38.026Z,100340.16
2023-01-01T05:29:10.330Z,100348.00
2023-01-01T05:31:41.909Z,100355.94
2023-01-01T05:36:38.496Z,100351.41
2023-01-01T05:39:09.353Z,100348.00
2023-01-01T05:41:38.605Z,100340.97
2023-01-01T05:44:07.100Z,100351.25
2023-01-01T05:46:33.524Z,100358.75
2023-01-01T05:49:00.406Z,100355.66
2023-01-01T05:51:28.615Z,100354.66
2023-01-01T05:53:55.924Z,100366.88
2023-01-01T05:56:22.942Z,100359.00
2023-01-01T05:58:49.463Z,100377.16
2023-01-01T06:01:21.008Z,100388.53
2023-01-01T06:03:50.951Z,100397.00
2023-01-01T06:06:19.450Z,100395.41
2023-01-01T06:08:50.728Z,100399.34
2023-01-01T06:11:17.433Z,100394.41
2023-01-01T06:13:43.815Z,100408.72
2023-01-01T06:16:10.524Z,100425.50
2023-01-01T06:18:37.475Z,100423.53
2023-01-01T06:21:09.825Z,100439.81
2023-01-01T06:23:36.643Z,100427.75
2023-01-01T06:26:14.398Z,100412.03
2023-01-01T06:28:41.206Z,100414.22
2023-01-01T06:31:08.872Z,100422.00
2023-01-01T06:33:35.551Z,100430.75
2023-01-01T06:36:03.541Z,100434.53
2023-01-01T06:38:37.851Z,100443.78
2023-01-01T06:41:06.621Z,100443.94
2023-01-01T06:43:35.230Z,100442.66
2023-01-01T06:46:14.497Z,100457.38
2023-01-01T06:48:40.882Z,100461.03
2023-01-01T06:51:09.078Z,100453.78
2023-01-01T06:53:35.711Z,100467.38
2023-01-01T06:56:02.370Z,100470.78
2023-01-01T06:58:28.794Z,100466.44
2023-01-01T07:00:55.243Z,100474.25
2023-01-01T07:03:21.742Z,100493.75
2023-01-01T07:05:48.136Z,100504.75
2023-01-01T07:08:14.538Z,100498.00
2023-01-01T07:10:40.932Z,100488.06
2023-01-01T07:13:07.301Z,100498.88
2023-01-01T07:15:33.724Z,100493.66
2023-01-01T07:18:00.130Z,100503.56
2023-01-01T07:20:26.525Z,100503.22
2023-01-01T07:22:52.886Z,100499.66
2023-01-01T07:25:19.283Z,100500.44
2023-01-01T07:27:45.655Z,100498.16
2023-01-01T07:30:12.138Z,100506.94
2023-01-01T07:32:38.497Z,100508.09
2023-01-01T07:35:05.141Z,100537.44
2023-01-01T07:37:31.546Z,100529.97
2023-01-01T07:39:57.921Z,100539.13
2023-01-01T07:42:24.367Z,100548.47
2023-01-01T07:44:50.759Z,100561.22
2023-01-01T07:47:26.642Z,100566.63
2023-01-01T07:49:53.204Z,100559.69
2023-01-01T07:52:19.756Z,100564.06
2023-01-01T07:54:46.181Z,100567.63
2023-01-01T07:57:12.661Z,100566.47
2023-01-01T07:59:39.059Z,100556.78
2023-01-01T08:02:05.553Z,100557.22
2023-01-01T08:04:32.022Z,100565.47
2023-01-01T08:06:58.388Z,100575.22
2023-01-01T08:09:24.770Z,100573.78
2023-01-01T08:11:53.086Z,100579.75
2023-01-01T08:14:19.820Z,100581.06
2023-01-01T08:16:46.214Z,100581.66
2023-01-01T08:19:12.646Z,100582.78
2023-01-01T08:21:39.032Z,100607.94
2023-01-01T08:24:05.543Z,100605.75
2023-01-01T08:26:33.758Z,100607.28
2023-01-01T08:29:03.049Z,100649.47
2023-01-01T08:31:29.556Z,100624.94
2023-01-01T08:33:56.076Z,100627.97
2023-01-01T08:36:22.567Z,100633.78
2023-01-01T08:38:48.966Z,100629.75
2023-01-01T08:41:15.449Z,100632.03
2023-01-01T08:43:41.828Z,100621.72
2023-01-01T08:46:08.307Z,100620.59
2023-01-01T08:48:34.749Z,100623.09
2023-01-01T08:51:01.378Z,100635.84
2023-01-01T08:53:29.470Z,100654.03
2023-01-01T08:55:57.481Z,100644.59
2023-01-01T08:58:23.976Z,100650.28
2023-01-01T09:00:50.369Z,100656.81
2023-01-01T09:03:16.851Z,100669.19
2023-01-01T09:05:45.773Z,100677.50
2023-01-01T09:08:12.829Z,100671.09
2023-01-01T09:10:39.678Z,100675.56
2023-01-01T09:13:06.105Z,100673.25
2023-01-01T09:15:32.538Z,100680.16
2023-01-01T09:17:58.912Z,100679.59
2023-01-01T09:20:25.407Z,100688.53
2023-01-01T09:22:51.851Z,100703.66
2023-01-01T09:25:18.366Z,100708.09
2023-01-01T09:27:44.779Z,100709.13
2023-01-01T09:30:11.790Z,100704.72
2023-01-01T09:32:38.210Z,100717.09
2023-01-01T09:35:04.856Z,100725.34
2023-01-01T09:37:31.378Z,100718.34
2023-01-01T09:39:57.932Z,100717.94
2023-01-01T09:42:45.462Z,100730.31
2023-01-01T09:45:27.013Z,100722.38
2023-01-01T09:48:00.014Z,100719.47
2023-01-01T09:50:46.181Z,100712.47
2023-01-01T09:53:20.883Z,100726.47
2023-01-01T09:55:58.351Z,100731.31
2023-01-01T09:58:36.093Z,100724.31
2023-01-01T10:01:30.487Z,100730.94
2023-01-01T10:04:23.091Z,100728.47
2023-01-01T10:06:55.153Z,100743.06
2023-01-01T10:09:28.965Z,100728.06
2023-01-01T10:12:07.603Z,100731.25
2023-01-01T10:14:41.508Z,100734.47
2023-01-01T10:17:34.688Z,100734.63
2023-01-01T10:20:25.916Z,100742.09
2023-01-01T10:22:55.616Z,100756.88
2023-01-01T10:25:24.989Z,100744.78
2023-01-01T10:27:59.728Z,100741.06
2023-01-01T10:30:27.772Z,100737.16
2023-01-01T10:32:55.175Z,100736.34
2023-01-01T10:35:36.137Z,100739.38
2023-01-01T10:38:03.791Z,100723.97
2023-01-01T10:40:31.123Z,100722.88
2023-01-01T10:42:59.971Z,100729.63
2023-01-01T10:45:33.002Z,100724.50
2023-01-01T10:48:21.778Z,100702.78
2023-01-01T10:50:53.595Z,100721.41
2023-01-01T10:53:27.656Z,100717.97
2023-01-01T10:56:23.806Z,100727.56
2023-01-01T10:58:52.328Z,100714.47
2023-01-01T11:01:18.653Z,100717.88
2023-01-01T11:04:01.428Z,100709.19
2023-01-01T11:06:35.451Z,100704.53
2023-01-01T11:09:04.934Z,100701.63
2023-01-01T11:11:37.835Z,100706.31
2023-01-01T11:14:05.492Z,100721.22
2023-01-01T11:16:32.595Z,100715.03
2023-01-01T11:19:05.413Z,100708.19
2023-01-01T11:21:32.188Z,100717.28
2023-01-01T11:24:30.766Z,100724.03
2023-01-01T11:27:19.206Z,100748.88
2023-01-01T11:29:45.756Z,100747.69
2023-01-01T11:32:19.137Z,100752.00
2023-01-01T11:34:46.400Z,100748.38
2023-01-01T11:37:27.097Z,100757.22
2023-01-01T11:39:54.965Z,100754.78
2023-01-01T11:42:24.039Z,100761.97
2023-01-01T11:45:01.554Z,100775.16
2023-01-01T11:47:35.814Z,100779.47
2023-01-01T11:50:14.332Z,100774.44
2023-01-01T11:52:51.582Z,100778.94
2023-01-01T11:55:34.190Z,100785.41
2023-01-01T11:58:19.354Z,100783.25
2023-01-01T12:00:47.977Z,100776.69
2023-01-01T12:03:20.250Z,100785.97
2023-01-01T12:05:58.747Z,100786.47
2023-01-01T12:08:35.441Z,100784.50
2023-01-01T12:11:09.104Z,100779.81
2023-01-01T12:13:50.944Z,100778.94
2023-01-01T12:16:22.899Z,100776.88
2023-01-01T12:19:02.741Z,100765.47
2023-01-01T12:21:30.009Z,100769.34
2023-01-01T12:23:56.614Z,100759.22
2023-01-01T12:26:32.531Z,100745.91
2023-01-01T12:29:17.877Z,100751.28
2023-01-01T12:32:02.943Z,100761.53
2023-01-01T12:34:33.934Z,100749.13
2023-01-01T12:37:37.953Z,100740.88
2023-01-01T12:40:17.055Z,100753.88
2023-01-01T12:43:17.792Z,100763.69
2023-01-01T12:46:05.758Z,100753.25
2023-01-01T12:48:57.384Z,100755.59
2023-01-01T12:51:45.500Z,100756.00
2023-01-01T12:54:33.705Z,100759.72
2023-01-01T12:57:18.682Z,100752.81
2023-01-01T12:59:48.496Z,100742.50
2023-01-01T13:02:27.965Z,100762.94
2023-01-01T13:05:07.074Z,100763.69
2023-01-01T13:07:39.844Z,100759.28
2023-01-01T13:10:12.570Z,100765.09
2023-01-01T13:12:39.028Z,100760.06
2023-01-01T13:15:40.156Z,100757.22
2023-01-01T13:18:15.794Z,100762.19
2023-01-01T13:20:44.982Z,100758.28
2023-01-01T13:23:35.964Z,100775.59
2023-01-01T13:26:17.652Z,100772.59
2023-01-01T13:29:09.592Z,100763.91
2023-01-01T13:31:39.391Z,100764.81
2023-01-01T13:34:30.500Z,100770.19
2023-01-01T13:37:15.243Z,100770.00
2023-01-01T13:40:13.226Z,100779.88
2023-01-01T13:42:44.317Z,100787.16
2023-01-01T13:45:36.534Z,100794.28
2023-01-01T13:48:25.430Z,100793.09
2023-01-01T13:51:55.314Z,100799.81
2023-01-01T13:54:48.656Z,100797.94
2023-01-01T13:57:36.523Z,100802.22
2023-01-01T14:00:33.940Z,100798.66
2023-01-01T14:03:11.414Z,100802.13
2023-01-01T14:05:58.586Z,100803.50
2023-01-01T14:08:33.520Z,100798.22
2023-01-01T14:11:02.101Z,100795.34
2023-01-01T14:13:32.199Z,100798.56
2023-01-01T14:16:01.332Z,100801.03
2023-01-01T14:18:38.600Z,100797.13
2023-01-01T14:21:13.778Z,100791.13
2023-01-01T14:23:41.924Z,100795.56
2023-01-01T14:26:22.782Z,100782.38
2023-01-01T14:28:53.518Z,100785.75
2023-01-01T14:31:21.538Z,100798.66
2023-01-01T14:33:48.236Z,100797.38
2023-01-01T14:36:23.811Z,100803.78
2023-01-01T14:38:52.289Z,100811.75
2023-01-01T14:41:28.482Z,100799.84
2023-01-01T14:43:57.751Z,100803.06
2023-01-01T14:46:25.696Z,100806.44
2023-01-01T14:48:58.543Z,100814.34
2023-01-01T14:51:29.969Z,100807.34
2023-01-01T14:53:59.099Z,100813.97
2023-01-01T14:56:29.135Z,100820.06
2023-01-01T14:59:05.468Z,100820.94
2023-01-01T15:01:31.983Z,100827.78
2023-01-01T15:03:59.575Z,100822.50
2023-01-01T15:06:26.093Z,100818.94
2023-01-01T15:08:53.024Z,100811.13
2023-01-01T15:11:26.649Z,100818.28
2023-01-01T15:13:57.876Z,100818.56
2023-01-01T15:16:24.530Z,100823.97
2023-01-01T15:18:53.062Z,100817.09
2023-01-01T15:21:35.022Z,100816.47
2023-01-01T15:24:16.339Z,100814.47
2023-01-01T15:26:48.266Z,100821.16
2023-01-01T15:29:24.334Z,100808.19
2023-01-01T15:31:54.823Z,100803.75
2023-01-01T15:34:24.519Z,100805.75
2023-01-01T15:36:52.351Z,100793.97
2023-01-01T15:39:19.133Z,100799.88
2023-01-01T15:41:48.241Z,100789.56
2023-01-01T15:44:25.737Z,100797.00
2023-01-01T15:46:52.652Z,100789.19
2023-01-01T15:49:27.458Z,100793.28
2023-01-01T15:52:04.034Z,100796.56
2023-01-01T15:54:30.605Z,100791.88
2023-01-01T15:56:57.029Z,100799.44
2023-01-01T15:59:27.465Z,100806.44
2023-01-01T16:02:04.761Z,100814.16
2023-01-01T16:04:31.443Z,100822.06
2023-01-01T16:06:58.804Z,100824.47
2023-01-01T16:09:25.437Z,100820.38
2023-01-01T16:11:53.322Z,100825.16
2023-01-01T16:14:19.866Z,100830.88
2023-01-01T16:16:50.825Z,100823.97
2023-01-01T16:19:18.022Z,100821.69
2023-01-01T16:21:44.431Z,100829.56
2023-01-01T16:24:14.677Z,100821.16
2023-01-01T16:26:41.804Z,100822.19
2023-01-01T16:29:08.277Z,100830.25
2023-01-01T16:31:34.955Z,100822.97
2023-01-01T16:34:02.171Z,100824.38
2023-01-01T16:36:29.347Z,100830.56
2023-01-01T16:38:56.505Z,100825.16
2023-01-01T16:41:23.855Z,100822.56
2023-01-01T16:43:50.234Z,100826.16
2023-01-01T16:46:16.667Z,100830.75
2023-01-01T16:48:43.607Z,100834.13
2023-01-01T16:51:29.690Z,100839.00
2023-01-01T16:53:57.220Z,100840.72
2023-01-01T16:56:23.635Z,100832.59
2023-01-01T16:58:53.207Z,100837.69
2023-01-01T17:01:24.804Z,100830.72
2023-01-01T17:03:51.302Z,100830.00
2023-01-01T17:06:18.001Z,100829.06
2023-01-01T17:08:44.455Z,100832.06
2023-01-01T17:11:16.769Z,100823.03
2023-01-01T17:13:44.863Z,100833.38
2023-01-01T17:16:12.333Z,100831.53
2023-01-01T17:19:13.236Z,100833.34
2023-01-01T17:21:26.002Z,100831.53
2023-01-01T17:23:53.247Z,100831.97
2023-01-01T17:26:21.255Z,100820.66
2023-01-01T17:28:49.064Z,100827.13
2023-01-01T17:31:17.628Z,100813.66
2023-01-01T17:33:44.156Z,100815.56
2023-01-01T17:36:10.950Z,100821.47
2023-01-01T17:38:38.435Z,100806.81
2023-01-01T17:41:10.273Z,100804.63
2023-01-01T17:43:41.892Z,100800.50
2023-01-01T17:46:12.496Z,100801.28
2023-01-01T17:48:39.499Z,100803.84
2023-01-01T17:51:05.958Z,100802.22
2023-01-01T17:53:32.454Z,100802.72
2023-01-01T17:55:58.934Z,100795.53
2023-01-01T17:58:29.517Z,100799.06
2023-01-01T18:01:30.543Z,100799.84
2023-01-01T18:04:02.029Z,100797.81
2023-01-01T18:06:30.254Z,100791.03
2023-01-01T18:09:01.197Z,100783.91
2023-01-01T18:11:29.134Z,100779.28
2023-01-01T18:13:56.771Z,100777.91
2023-01-01T18:16:23.330Z,100780.13
2023-01-01T18:18:50.015Z,100779.09
2023-01-01T18:21:20.663Z,100780.44
2023-01-01T18:23:48.371Z,100789.75
2023-01-01T18:26:14.925Z,100779.00
2023-01-01T18:28:41.361Z,100779.75
2023-01-01T18:31:13.051Z,100769.41
2023-01-01T18:33:39.824Z,100780.56
2023-01-01T18:36:12.165Z,100780.72
2023-01-01T18:38:39.965Z,100778.91
2023-01-01T18:41:34.091Z,100782.75
2023-01-01T18:44:00.712Z,100787.72
2023-01-01T18:46:28.755Z,100786.50
2023-01-01T18:48:59.289Z,100777.56
2023-01-01T18:51:25.863Z,100774.28
2023-01-01T18:53:55.890Z,100772.59
2023-01-01T18:56:23.181Z,100779.50
2023-01-01T18:58:50.384Z,100774.69
2023-01-01T19:01:20.326Z,100777.94
2023-01-01T19:03:49.704Z,100777.25
2023-01-01T19:06:20.253Z,100777.06
2023-01-01T19:08:46.731Z,100768.13
2023-01-01T19:11:16.408Z,100753.94
2023-01-01T19:13:42.869Z,100748.41
2023-01-01T19:16:12.228Z,100747.44
2023-01-01T19:18:40.910Z,100748.59
2023-01-01T19:21:10.432Z,100739.38
2023-01-01T19:23:38.719Z,100740.22
2023-01-01T19:26:05.906Z,100741.75
2023-01-01T19:28:36.497Z,100739.97
2023-01-01T19:31:04.879Z,100738.41
2023-01-01T19:33:31.397Z,100736.38
2023-01-01T19:35:58.292Z,100734.16
2023-01-01T19:38:24.774Z,100736.50
2023-01-01T19:40:51.158Z,100733.91
2023-01-01T19:43:17.599Z,100729.75
2023-01-01T19:45:44.160Z,100732.34
2023-01-01T19:48:10.554Z,100720.16
2023-01-01T19:50:36.957Z,100717.91
2023-01-01T19:53:03.318Z,100714.53
2023-01-01T19:55:29.706Z,100709.56
2023-01-01T19:57:56.181Z,100707.00
2023-01-01T20:00:23.612Z,100697.31
2023-01-01T20:02:50.172Z,100692.81
2023-01-01T20:05:16.880Z,100689.38
2023-01-01T20:07:43.308Z,100688.38
2023-01-01T20:10:09.929Z,100684.38
2023-01-01T20:12:36.319Z,100684.75
2023-01-01T20:15:02.717Z,100666.47
2023-01-01T20:17:30.598Z,100655.78
2023-01-01T20:19:58.220Z,100653.34
2023-01-01T20:22:24.834Z,100647.53
2023-01-01T20:24:51.300Z,100641.44
2023-01-01T20:27:17.851Z,100639.44
2023-01-01T20:29:44.546Z,100633.13
2023-01-01T20:32:12.818Z,100629.06
2023-01-01T20:34:40.298Z,100627.94
2023-01-01T20:37:25.240Z,100623.69
2023-01-01T20:39:51.612Z,100623.84
2023-01-01T20:42:18.166Z,100618.97
2023-01-01T20:44:44.642Z,100611.47
2023-01-01T20:47:11.902Z,100609.47
2023-01-01T20:49:38.834Z,100603.25
2023-01-01T20:52:05.219Z,100605.75
2023-01-01T20:54:31.805Z,100597.88
2023-01-01T20:56:58.169Z,100593.47
2023-01-01T20:59:35.407Z,100576.47
2023-01-01T21:02:05.430Z,100564.00
2023-01-01T21:04:32.085Z,100557.06
2023-01-01T21:06:58.504Z,100553.88
2023-01-01T21:09:24.892Z,100548.97
2023-01-01T21:11:51.318Z,100554.84
2023-01-01T21:14:17.910Z,100549.03
2023-01-01T21:16:44.832Z,100544.44
2023-01-01T21:19:12.440Z,100540.66
2023-01-01T21:21:43.736Z,100545.25
2023-01-01T21:24:23.357Z,100540.91
2023-01-01T21:26:51.961Z,100543.59
2023-01-01T21:29:23.941Z,100531.31
2023-01-01T21:31:52.569Z,100526.03
2023-01-01T21:34:40.565Z,100518.06
2023-01-01T21:37:52.434Z,100507.19
2023-01-01T21:40:21.850Z,100519.66
2023-01-01T21:42:48.965Z,100514.88
2023-01-01T21:45:19.442Z,100514.75
2023-01-01T21:47:45.818Z,100514.34
2023-01-01T21:50:25.517Z,100510.78
2023-01-01T21:52:57.208Z,100497.63
2023-01-01T21:55:26.338Z,100489.88
2023-01-01T21:58:17.767Z,100484.56
2023-01-01T22:00:47.357Z,100494.66
2023-01-01T22:03:14.682Z,100479.78
2023-01-01T22:05:42.380Z,100486.66
2023-01-01T22:08:24.177Z,100477.47
2023-01-01T22:10:50.586Z,100461.31
2023-01-01T22:13:17.981Z,100458.69
2023-01-01T22:15:45.712Z,100459.22
2023-01-01T22:18:12.006Z,100468.94
2023-01-01T22:20:39.462Z,100462.72
2023-01-01T22:23:20.304Z,100458.84
2023-01-01T22:25:47.259Z,100464.84
2023-01-01T22:28:23.589Z,100449.41
2023-01-01T22:30:54.047Z,100447.81
2023-01-01T22:33:50.148Z,100461.19
2023-01-01T22:36:26.082Z,100448.03
2023-01-01T22:38:58.375Z,100442.41
2023-01-01T22:41:24.679Z,100439.94
2023-01-01T22:43:56.049Z,100434.75
2023-01-01T22:46:29.918Z,100429.94
2023-01-01T22:49:16.555Z,100437.19
2023-01-01T22:51:44.043Z,100435.69
2023-01-01T22:54:10.486Z,100437.28
2023-01-01T22:56:36.874Z,100435.84
2023-01-01T22:59:03.558Z,100440.41
2023-01-01T23:01:29.993Z,100440.59
2023-01-01T23:03:56.576Z,100430.28
2023-01-01T23:06:23.054Z,100427.59
2023-01-01T23:08:50.392Z,100426.09
2023-01-01T23:11:16.946Z,100420.63
2023-01-01T23:14:06.587Z,100426.34
2023-01-01T23:16:33.010Z,100414.91
2023-01-01T23:18:59.429Z,100420.81
2023-01-01T23:21:27.320Z,100399.22
2023-01-01T23:23:56.302Z,100400.38
2023-01-01T23:26:23.077Z,100405.75
2023-01-01T23:28:49.603Z,100403.78
2023-01-01T23:31:24.322Z,100397.50
2023-01-01T23:33:51.720Z,100389.78
2023-01-01T23:36:18.129Z,100374.19
2023-01-01T23:38:44.543Z,100378.84
2023-01-01T23:41:10.949Z,100364.16
2023-01-01T23:43:43.256Z,100365.59
2023-01-01T23:46:11.669Z,100363.06
2023-01-01T23:48:38.239Z,100357.19
2023-01-01T23:51:05.153Z,100370.78
2023-01-01T23:53:31.554Z,100360.75
2023-01-01T23:55:57.927Z,100368.91
2023-01-01T23:58:24.323Z,100353.38
